createdAt,value
2023-05-01T00:00:07.375Z,97162.22
2023-05-01T00:02:54.511Z,97158.13
2023-05-01T00:05:41.559Z,97149.72
2023-05-01T00:08:28.404Z,97148.28
2023-05-01T00:11:15.731Z,97145.22
2023-05-01T00:14:02.475Z,97148.97
2023-05-01T00:16:49.404Z,97138.63
2023-05-01T00:19:36.209Z,97141.78
2023-05-01T00:22:23.058Z,97137.09
2023-05-01T00:25:10.675Z,97136.25
2023-05-01T00:27:58.730Z,97129.72
2023-05-01T00:30:45.734Z,97125.59
2023-05-01T00:33:32.470Z,97124.97
2023-05-01T00:36:19.344Z,97124.41
2023-05-01T00:39:08.304Z,97124.03
2023-05-01T00:41:55.961Z,97109.19
2023-05-01T00:44:42.669Z,97118.50
2023-05-01T00:47:29.457Z,97109.88
2023-05-01T00:50:16.309Z,97107.63
2023-05-01T00:53:04.118Z,97118.56
2023-05-01T00:55:50.937Z,97106.63
2023-05-01T00:58:38.348Z,97110.38
2023-05-01T01:01:25.162Z,97107.56
2023-05-01T01:04:12.036Z,97106.13
2023-05-01T01:07:01.745Z,97099.13
2023-05-01T01:10:07.100Z,97104.13
2023-05-01T01:13:04.453Z,97105.38
2023-05-01T01:15:54.119Z,97094.88
2023-05-01T01:18:43.346Z,97090.16
2023-05-01T01:21:38.848Z,97094.13
2023-05-01T01:24:52.381Z,97080.91
2023-05-01T01:27:52.358Z,97097.47
2023-05-01T01:30:45.254Z,97083.91
2023-05-01T01:33:58.650Z,97081.47
2023-05-01T01:36:45.384Z,97081.06
2023-05-01T01:39:42.327Z,97082.91
2023-05-01T01:42:35.302Z,97079.84
2023-05-01T01:45:23.849Z,97084.63
2023-05-01T01:48:11.643Z,97078.06
2023-05-01T01:50:58.742Z,97078.50
2023-05-01T01:53:46.465Z,97067.16
2023-05-01T01:56:33.346Z,97064.13
2023-05-01T01:59:21.623Z,97061.88
2023-05-01T02:02:08.513Z,97050.56
2023-05-01T02:04:57.156Z,97061.72
2023-05-01T02:07:45.069Z,97059.44
2023-05-01T02:10:31.789Z,97053.94
2023-05-01T02:13:18.817Z,97049.81
2023-05-01T02:16:06.338Z,97043.03
2023-05-01T02:18:53.470Z,97037.09
2023-05-01T02:21:40.254Z,97039.16
2023-05-01T02:24:27.956Z,97029.72
2023-05-01T02:27:24.236Z,97028.28
2023-05-01T02:30:11.576Z,97034.09
2023-05-01T02:32:58.465Z,97028.94
2023-05-01T02:35:47.358Z,97031.25
2023-05-01T02:38:34.453Z,97032.50
2023-05-01T02:41:21.630Z,97032.13
2023-05-01T02:44:08.719Z,97033.38
2023-05-01T02:46:55.518Z,97027.44
2023-05-01T02:49:44.029Z,97020.41
2023-05-01T02:52:30.772Z,97022.69
2023-05-01T02:55:17.568Z,97017.81
2023-05-01T02:58:04.336Z,97007.72
2023-05-01T03:00:51.118Z,97003.41
2023-05-01T03:03:37.980Z,97000.34
2023-05-01T03:06:24.716Z,97000.56
2023-05-01T03:09:11.815Z,97001.00
2023-05-01T03:11:58.536Z,96999.38
2023-05-01T03:14:45.404Z,96992.78
2023-05-01T03:17:32.177Z,96999.41
2023-05-01T03:20:18.922Z,96997.16
2023-05-01T03:23:06.717Z,96993.88
2023-05-01T03:25:54.740Z,96994.31
2023-05-01T03:28:41.447Z,96993.91
2023-05-01T03:31:28.297Z,96985.50
2023-05-01T03:34:15.121Z,96985.72
2023-05-01T03:37:01.807Z,96986.16
2023-05-01T03:39:48.542Z,96987.41
2023-05-01T03:42:35.332Z,96984.94
2023-05-01T03:45:22.127Z,96982.13
2023-05-01T03:48:09.012Z,96968.94
2023-05-01T03:50:56.916Z,96971.84
2023-05-01T03:53:43.646Z,96974.72
2023-05-01T03:56:35.464Z,96975.16
2023-05-01T03:59:22.228Z,96966.75
2023-05-01T04:02:09.550Z,96969.84
2023-05-01T04:04:56.409Z,96969.03
2023-05-01T04:07:43.156Z,96975.78
2023-05-01T04:10:29.878Z,96974.97
2023-05-01T04:13:17.212Z,96970.06
2023-05-01T04:16:04.060Z,96957.56
2023-05-01T04:18:50.967Z,96961.47
2023-05-01T04:21:37.710Z,96963.56
2023-05-01T04:24:24.438Z,96961.31
2023-05-01T04:27:11.656Z,96961.50
2023-05-01T04:29:58.729Z,96959.06
2023-05-01T04:32:46.264Z,96960.28
2023-05-01T04:35:33.734Z,96960.53
2023-05-01T04:38:20.421Z,96958.03
2023-05-01T04:41:07.149Z,96954.78
2023-05-01T04:43:55.258Z,96956.81
2023-05-01T04:46:42.079Z,96953.56
2023-05-01T04:49:29.073Z,96956.44
2023-05-01T04:52:16.404Z,96947.81
2023-05-01T04:55:03.863Z,96951.50
2023-05-01T04:57:50.601Z,96961.00
2023-05-01T05:00:37.304Z,96970.28
2023-05-01T05:03:24.074Z,96960.19
2023-05-01T05:06:11.414Z,96973.78
2023-05-01T05:08:58.540Z,96975.03
2023-05-01T05:11:45.408Z,96974.63
2023-05-01T05:14:32.196Z,96970.50
2023-05-01T05:17:18.898Z,96976.09
2023-05-01T05:20:05.968Z,96978.13
2023-05-01T05:22:52.789Z,96968.72
2023-05-01T05:25:39.537Z,96975.91
2023-05-01T05:28:26.306Z,96972.38
2023-05-01T05:31:13.064Z,96966.66
2023-05-01T05:33:59.828Z,96972.00
2023-05-01T05:36:46.614Z,96963.97
2023-05-01T05:39:33.721Z,96970.16
2023-05-01T05:42:20.610Z,96972.63
2023-05-01T05:45:07.764Z,96969.31
2023-05-01T05:47:54.587Z,96964.81
2023-05-01T05:50:41.430Z,96965.81
2023-05-01T05:53:28.172Z,96966.06
2023-05-01T05:56:14.879Z,96963.56
2023-05-01T05:59:03.673Z,96966.47
2023-05-01T06:01:50.395Z,96965.66
2023-05-01T06:04:37.175Z,96964.84
2023-05-01T06:07:24.267Z,96965.88
2023-05-01T06:10:11.681Z,96970.38
2023-05-01T06:13:07.749Z,96964.63
2023-05-01T06:16:01.286Z,96960.91
2023-05-01T06:18:48.000Z,96955.94
2023-05-01T06:21:34.741Z,96958.44
2023-05-01T06:24:21.485Z,96945.66
2023-05-01T06:27:08.202Z,96950.59
2023-05-01T06:29:55.126Z,96947.50
2023-05-01T06:32:43.641Z,96946.03
2023-05-01T06:35:30.519Z,96936.78
2023-05-01T06:38:17.215Z,96937.41
2023-05-01T06:41:07.256Z,96936.75
2023-05-01T06:43:54.004Z,96933.84
2023-05-01T06:46:40.976Z,96930.97
2023-05-01T06:49:27.722Z,96924.38
2023-05-01T06:52:14.377Z,96926.03
2023-05-01T06:55:01.300Z,96930.34
2023-05-01T06:57:48.049Z,96919.41
2023-05-01T07:00:34.820Z,96922.09
2023-05-01T07:03:21.826Z,96931.53
2023-05-01T07:06:08.651Z,96923.53
2023-05-01T07:08:55.489Z,96927.81
2023-05-01T07:11:45.115Z,96913.44
2023-05-01T07:14:31.996Z,96917.53
2023-05-01T07:17:18.809Z,96918.97
2023-05-01T07:20:05.918Z,96918.72
2023-05-01T07:22:52.624Z,96917.50
2023-05-01T07:25:41.366Z,96915.63
2023-05-01T07:28:28.121Z,96911.72
2023-05-01T07:31:15.564Z,96912.53
2023-05-01T07:34:02.410Z,96919.31
2023-05-01T07:36:49.125Z,96912.09
2023-05-01T07:39:36.130Z,96903.66
2023-05-01T07:42:23.501Z,96914.13
2023-05-01T07:45:10.633Z,96910.22
2023-05-01T07:47:57.466Z,96905.44
2023-05-01T07:50:44.344Z,96900.72
2023-05-01T07:53:31.208Z,96906.44
2023-05-01T07:56:17.919Z,96901.50
2023-05-01T07:59:04.599Z,96908.28
2023-05-01T08:01:51.382Z,96896.13
2023-05-01T08:04:38.203Z,96901.84
2023-05-01T08:07:24.983Z,96902.00
2023-05-01T08:10:11.857Z,96907.53
2023-05-01T08:12:59.351Z,96905.25
2023-05-01T08:15:46.900Z,96885.03
2023-05-01T08:18:33.631Z,96894.03
2023-05-01T08:21:20.448Z,96897.91
2023-05-01T08:24:08.838Z,96896.47
2023-05-01T08:26:56.109Z,96898.47
2023-05-01T08:29:42.919Z,96895.13
2023-05-01T08:32:29.817Z,96898.19
2023-05-01T08:35:16.847Z,96902.28
2023-05-01T08:38:03.630Z,96896.50
2023-05-01T08:40:53.867Z,96895.81
2023-05-01T08:43:41.037Z,96890.59
2023-05-01T08:46:38.285Z,96894.47
2023-05-01T08:49:25.096Z,96882.06
2023-05-01T08:52:12.358Z,96882.19
2023-05-01T08:54:59.050Z,96887.13
2023-05-01T08:57:46.665Z,96881.75
2023-05-01T09:00:34.614Z,96876.78
2023-05-01T09:03:21.438Z,96885.00
2023-05-01T09:06:08.197Z,96878.13
2023-05-01T09:08:55.032Z,96870.22
2023-05-01T09:11:43.446Z,96879.44
2023-05-01T09:14:30.784Z,96869.53
2023-05-01T09:17:17.486Z,96860.88
2023-05-01T09:20:07.704Z,96871.16
2023-05-01T09:22:56.916Z,96863.94
2023-05-01T09:25:43.729Z,96864.06
2023-05-01T09:28:41.630Z,96862.81
2023-05-01T09:31:29.296Z,96862.34
2023-05-01T09:34:16.079Z,96863.53
2023-05-01T09:37:02.974Z,96857.94
2023-05-01T09:39:49.709Z,96853.16
2023-05-01T09:42:37.493Z,96857.25
2023-05-01T09:45:26.604Z,96862.16
2023-05-01T09:48:13.544Z,96855.78
2023-05-01T09:51:00.257Z,96854.47
2023-05-01T09:53:46.950Z,96845.78
2023-05-01T09:56:34.067Z,96857.69
2023-05-01T09:59:21.119Z,96861.28
2023-05-01T10:02:08.859Z,96857.09
2023-05-01T10:04:57.936Z,96856.66
2023-05-01T10:07:57.818Z,96853.28
2023-05-01T10:10:44.626Z,96846.63
2023-05-01T10:13:32.147Z,96847.00
2023-05-01T10:16:28.892Z,96848.19
2023-05-01T10:19:16.957Z,96854.97
2023-05-01T10:22:03.826Z,96855.53
2023-05-01T10:24:50.604Z,96862.09
2023-05-01T10:27:38.260Z,96855.22
2023-05-01T10:30:27.820Z,96842.16
2023-05-01T10:33:14.687Z,96840.63
2023-05-01T10:36:01.608Z,96841.81
2023-05-01T10:38:48.550Z,96841.56
2023-05-01T10:41:54.482Z,96839.25
2023-05-01T10:44:42.287Z,96835.06
2023-05-01T10:47:30.685Z,96829.00
2023-05-01T10:50:17.515Z,96833.09
2023-05-01T10:53:14.485Z,96836.97
2023-05-01T10:56:01.482Z,96829.25
2023-05-01T10:59:03.057Z,96826.94
2023-05-01T11:01:52.163Z,96824.59
2023-05-01T11:04:48.229Z,96831.34
2023-05-01T11:07:35.602Z,96828.19
2023-05-01T11:10:26.145Z,96832.03
2023-05-01T11:13:12.864Z,96823.50
2023-05-01T11:15:59.609Z,96820.38
2023-05-01T11:18:46.626Z,96825.28
2023-05-01T11:21:34.186Z,96823.16
2023-05-01T11:24:20.972Z,96811.94
2023-05-01T11:27:07.929Z,96814.16
2023-05-01T11:29:54.758Z,96813.91
2023-05-01T11:32:43.444Z,96801.88
2023-05-01T11:35:30.449Z,96802.22
2023-05-01T11:38:18.874Z,96803.63
2023-05-01T11:41:05.684Z,96801.03
2023-05-01T11:43:58.869Z,96795.19
2023-05-01T11:46:45.791Z,96798.22
2023-05-01T11:49:32.520Z,96803.13
2023-05-01T11:52:19.234Z,96801.00
2023-05-01T11:55:06.102Z,96796.56
2023-05-01T11:57:53.273Z,96789.09
2023-05-01T12:00:41.937Z,96789.41
2023-05-01T12:03:29.801Z,96789.75
2023-05-01T12:06:16.678Z,96795.47
2023-05-01T12:09:04.130Z,96793.94
2023-05-01T12:11:52.529Z,96788.31
2023-05-01T12:14:39.894Z,96798.59
2023-05-01T12:17:27.967Z,96791.66
2023-05-01T12:20:15.018Z,96794.00
2023-05-01T12:23:03.339Z,96781.38
2023-05-01T12:25:50.220Z,96783.03
2023-05-01T12:28:37.546Z,96796.47
2023-05-01T12:31:25.032Z,96782.44
2023-05-01T12:34:12.516Z,96781.47
2023-05-01T12:37:00.285Z,96777.56
2023-05-01T12:39:47.035Z,96783.03
2023-05-01T12:42:33.832Z,96783.63
2023-05-01T12:45:20.619Z,96781.16
2023-05-01T12:48:11.833Z,96783.63
2023-05-01T12:50:58.612Z,96784.28
2023-05-01T12:53:45.476Z,96774.41
2023-05-01T12:56:32.358Z,96775.91
2023-05-01T12:59:25.721Z,96777.06
2023-05-01T13:02:14.910Z,96779.00
2023-05-01T13:05:11.561Z,96774.16
2023-05-01T13:07:59.045Z,96768.31
2023-05-01T13:10:45.801Z,96771.56
2023-05-01T13:13:35.045Z,96759.75
2023-05-01T13:16:22.696Z,96761.94
2023-05-01T13:19:09.669Z,96764.38
2023-05-01T13:21:57.465Z,96762.53
2023-05-01T13:24:44.856Z,96762.28
2023-05-01T13:27:31.660Z,96763.91
2023-05-01T13:30:19.921Z,96760.16
2023-05-01T13:33:07.871Z,96767.16
2023-05-01T13:35:56.096Z,96758.84
2023-05-01T13:39:01.169Z,96767.50
2023-05-01T13:41:48.242Z,96765.63
2023-05-01T13:44:42.862Z,96756.47
2023-05-01T13:47:29.845Z,96762.66
2023-05-01T13:50:17.927Z,96764.06
2023-05-01T13:53:05.763Z,96763.00
2023-05-01T13:55:52.487Z,96765.44
2023-05-01T13:58:39.501Z,96759.25
2023-05-01T14:01:26.364Z,96766.00
2023-05-01T14:04:17.836Z,96763.91
2023-05-01T14:07:04.627Z,96767.97
2023-05-01T14:09:58.030Z,96760.72
2023-05-01T14:12:45.733Z,96754.25
2023-05-01T14:15:35.349Z,96757.75
2023-05-01T14:18:22.782Z,96753.19
2023-05-01T14:21:09.588Z,96752.13
2023-05-01T14:23:57.123Z,96750.28
2023-05-01T14:26:44.384Z,96752.97
2023-05-01T14:29:31.328Z,96759.19
2023-05-01T14:32:18.027Z,96762.69
2023-05-01T14:35:06.362Z,96768.78
2023-05-01T14:37:53.224Z,96772.13
2023-05-01T14:40:40.640Z,96771.38
2023-05-01T14:43:27.457Z,96771.47
2023-05-01T14:46:15.215Z,96775.34
2023-05-01T14:49:02.188Z,96778.59
2023-05-01T14:51:49.122Z,96787.25
2023-05-01T14:54:36.092Z,96788.88
2023-05-01T14:57:22.867Z,96794.25
2023-05-01T15:00:09.961Z,96796.16
2023-05-01T15:02:57.957Z,96793.72
2023-05-01T15:05:46.156Z,96793.13
2023-05-01T15:08:33.244Z,96804.38
2023-05-01T15:11:21.010Z,96801.13
2023-05-01T15:14:07.841Z,96802.16
2023-05-01T15:16:54.561Z,96794.34
2023-05-01T15:19:41.749Z,96793.25
2023-05-01T15:22:28.531Z,96803.22
2023-05-01T15:25:16.615Z,96795.97
2023-05-01T15:28:03.868Z,96802.16
2023-05-01T15:30:53.761Z,96805.69
2023-05-01T15:33:40.538Z,96801.94
2023-05-01T15:36:27.370Z,96800.03
2023-05-01T15:39:14.098Z,96805.44
2023-05-01T15:42:01.263Z,96807.31
2023-05-01T15:44:48.051Z,96811.63
2023-05-01T15:47:34.741Z,96812.44
2023-05-01T15:50:22.227Z,96811.41
2023-05-01T15:53:09.046Z,96814.94
2023-05-01T15:55:56.333Z,96814.94
2023-05-01T15:58:42.996Z,96814.94
2023-05-01T16:01:30.855Z,96812.25
2023-05-01T16:04:17.707Z,96814.09
2023-05-01T16:07:06.045Z,96807.88
2023-05-01T16:09:52.814Z,96810.56
2023-05-01T16:12:39.521Z,96812.44
2023-05-01T16:15:26.293Z,96807.06
2023-05-01T16:18:16.439Z,96806.00
2023-05-01T16:21:03.376Z,96810.56
2023-05-01T16:23:51.580Z,96815.94
2023-05-01T16:26:39.335Z,96814.09
2023-05-01T16:29:26.328Z,96822.19
2023-05-01T16:32:13.948Z,96819.47
2023-05-01T16:35:01.520Z,96813.25
2023-05-01T16:37:48.227Z,96818.66
2023-05-01T16:40:36.311Z,96820.31
2023-05-01T16:43:25.485Z,96818.44
2023-05-01T16:46:12.902Z,96813.06
2023-05-01T16:48:59.720Z,96813.06
2023-05-01T16:51:46.709Z,96818.44
2023-05-01T16:54:35.837Z,96813.25
2023-05-01T16:57:22.575Z,96814.09
2023-05-01T17:00:10.195Z,96820.31
2023-05-01T17:02:58.980Z,96815.75
2023-05-01T17:05:45.886Z,96826.53
2023-05-01T17:08:32.737Z,96816.78
2023-05-01T17:11:19.459Z,96824.66
2023-05-01T17:14:06.347Z,96831.91
2023-05-01T17:16:53.263Z,96830.25
2023-05-01T17:19:40.236Z,96834.81
2023-05-01T17:22:28.958Z,96844.56
2023-05-01T17:25:16.506Z,96838.34
2023-05-01T17:28:03.388Z,96837.50
2023-05-01T17:30:50.340Z,96839.38
2023-05-01T17:33:37.154Z,96845.59
2023-05-01T17:36:23.953Z,96843.97
2023-05-01T17:39:10.827Z,96848.53
2023-05-01T17:41:57.663Z,96845.84
2023-05-01T17:44:44.539Z,96848.78
2023-05-01T17:47:31.318Z,96847.13
2023-05-01T17:50:18.129Z,96854.41
2023-05-01T17:53:05.306Z,96851.97
2023-05-01T17:55:53.218Z,96851.16
2023-05-01T17:58:41.138Z,96852.19
2023-05-01T18:01:28.808Z,96850.56
2023-05-01T18:04:15.927Z,96853.53
2023-05-01T18:07:02.892Z,96858.31
2023-05-01T18:09:49.671Z,96858.56
2023-05-01T18:12:36.548Z,96857.75
2023-05-01T18:15:23.321Z,96860.69
2023-05-01T18:18:10.502Z,96859.06
2023-05-01T18:20:57.590Z,96870.91
2023-05-01T18:23:45.089Z,96873.00
2023-05-01T18:26:33.543Z,96874.31
2023-05-01T18:29:22.714Z,96874.56
2023-05-01T18:32:12.845Z,96886.41
2023-05-01T18:35:01.430Z,96882.31
2023-05-01T18:37:48.214Z,96881.50
2023-05-01T18:40:35.064Z,96885.47
2023-05-01T18:43:21.827Z,96886.53
2023-05-01T18:46:08.704Z,96888.91
2023-05-01T18:48:55.852Z,96891.00
2023-05-01T18:51:42.966Z,96895.56
2023-05-01T18:54:30.086Z,96900.41
2023-05-01T18:57:16.787Z,96894.69
2023-05-01T19:00:03.975Z,96904.88
2023-05-01T19:02:52.989Z,96914.00
2023-05-01T19:05:41.434Z,96916.09
2023-05-01T19:08:28.346Z,96920.09
2023-05-01T19:11:15.451Z,96924.09
2023-05-01T19:14:02.405Z,96931.56
2023-05-01T19:16:49.479Z,96928.31
2023-05-01T19:19:36.333Z,96928.53
2023-05-01T19:22:23.054Z,96928.22
2023-05-01T19:25:09.804Z,96927.88
2023-05-01T19:27:57.324Z,96932.69
2023-05-01T19:30:44.083Z,96945.56
2023-05-01T19:33:30.821Z,96945.81
2023-05-01T19:36:17.522Z,96947.09
2023-05-01T19:39:04.678Z,96951.06
2023-05-01T19:41:51.592Z,96949.69
2023-05-01T19:44:38.280Z,96954.47
2023-05-01T19:47:25.111Z,96953.88
2023-05-01T19:50:11.937Z,96961.59
2023-05-01T19:52:59.820Z,96966.16
2023-05-01T19:55:48.074Z,96970.16
2023-05-01T19:58:35.064Z,96973.09
2023-05-01T20:01:22.058Z,96967.13
2023-05-01T20:04:08.821Z,96973.75
2023-05-01T20:06:55.736Z,96981.25
2023-05-01T20:09:42.961Z,96978.19
2023-05-01T20:12:29.732Z,96980.31
2023-05-01T20:15:16.529Z,96978.91
2023-05-01T20:18:03.258Z,96990.13
2023-05-01T20:20:50.108Z,96988.50
2023-05-01T20:23:36.806Z,96986.28
2023-05-01T20:26:23.632Z,96998.09
2023-05-01T20:29:10.391Z,96992.13
2023-05-01T20:31:58.265Z,96998.81
2023-05-01T20:34:44.943Z,96999.03
2023-05-01T20:37:31.678Z,96996.78
2023-05-01T20:40:19.565Z,96997.84
2023-05-01T20:43:06.432Z,96995.41
2023-05-01T20:45:53.212Z,96993.19
2023-05-01T20:48:40.125Z,97001.25
2023-05-01T20:51:29.557Z,96999.84
2023-05-01T20:54:16.249Z,96995.75
2023-05-01T20:57:04.074Z,96997.63
2023-05-01T20:59:50.910Z,96995.38
2023-05-01T21:02:41.131Z,97002.06
2023-05-01T21:05:28.123Z,96997.97
2023-05-01T21:08:15.272Z,97004.41
2023-05-01T21:11:02.505Z,97001.94
2023-05-01T21:13:49.420Z,97003.22
2023-05-01T21:16:36.364Z,97002.38
2023-05-01T21:19:23.238Z,97005.56
2023-05-01T21:22:16.742Z,97011.16
2023-05-01T21:25:03.580Z,97015.97
2023-05-01T21:27:51.177Z,97020.72
2023-05-01T21:30:38.030Z,97014.75
2023-05-01T21:33:25.089Z,97027.63
2023-05-01T21:36:11.832Z,97022.47
2023-05-01T21:39:00.458Z,97029.13
2023-05-01T21:41:50.664Z,97025.84
2023-05-01T21:44:37.418Z,97026.09
2023-05-01T21:47:24.254Z,97022.59
2023-05-01T21:50:11.603Z,97031.91
2023-05-01T21:52:59.374Z,97030.50
2023-05-01T21:55:46.569Z,97032.59
2023-05-01T21:58:33.289Z,97032.00
2023-05-01T22:01:20.098Z,97034.94
2023-05-01T22:04:07.564Z,97031.63
2023-05-01T22:06:54.936Z,97036.44
2023-05-01T22:09:41.701Z,97039.34
2023-05-01T22:12:28.490Z,97041.44
2023-05-01T22:15:17.980Z,97048.91
2023-05-01T22:18:04.756Z,97050.97
2023-05-01T22:20:51.554Z,97052.28
2023-05-01T22:23:38.268Z,97056.19
2023-05-01T22:26:25.054Z,97047.53
2023-05-01T22:29:12.207Z,97053.16
2023-05-01T22:31:58.994Z,97047.19
2023-05-01T22:34:45.798Z,97056.28
2023-05-01T22:37:32.585Z,97061.28
2023-05-01T22:40:19.293Z,97059.03
2023-05-01T22:43:06.153Z,97051.47
2023-05-01T22:45:53.962Z,97058.91
2023-05-01T22:48:40.749Z,97055.63
2023-05-01T22:51:27.512Z,97057.72
2023-05-01T22:54:14.795Z,97048.50
2023-05-01T22:57:04.698Z,97056.75
2023-05-01T22:59:51.493Z,97055.38
2023-05-01T23:02:38.492Z,97054.75
2023-05-01T23:05:25.525Z,97059.75
2023-05-01T23:08:12.277Z,97063.50
2023-05-01T23:10:59.050Z,97063.94
2023-05-01T23:13:46.494Z,97059.81
2023-05-01T23:16:37.696Z,97061.13
2023-05-01T23:19:24.835Z,97064.25
2023-05-01T23:22:13.477Z,97064.69
2023-05-01T23:25:00.331Z,97064.09
2023-05-01T23:27:48.353Z,97068.88
2023-05-01T23:30:35.245Z,97064.75
2023-05-01T23:33:22.672Z,97070.56
2023-05-01T23:36:13.216Z,97061.09
2023-05-01T23:38:59.942Z,97069.38
2023-05-01T23:41:47.458Z,97062.59
2023-05-01T23:44:34.155Z,97060.94
2023-05-01T23:47:21.082Z,97062.22
2023-05-01T23:50:08.170Z,97058.34
2023-05-01T23:52:55.433Z,97056.09
2023-05-01T23:55:43.614Z,97056.56
2023-05-01T23:58:31.998Z,97062.94
